x

Mount Louis (45138) Wave Buoy

6:00am - Sat 4th Jul 2015 All times are UTC.

  • Sig Wave height 2.3ft
  • Peak Period 5s
  • Wind
    16mph, 18mph gusts
  • Sea Temp 53°f
  • Air Temp 56°f
  • Sea Pressure 1008mb

More Historic Weather Station data

Upgrade to MSW Pro to gain access to the past 30 days of data for over 8000 Wavebouys and Weather Stations around the globe.

Join Pro

Comparision Forecast

View Surf forecast
   
Sat 07/04 6:00am 2.5ft 5s 16 18 mph 1008mb 53f 56f
5:00am 2.5ft 4s 18
mph
1007.6mb 53f 57f
4:00am 3ft 4s 16 18 mph 1007.3mb 53f 56f
3:00am 3.5ft 4s 18 22 mph 1007.1mb 53f 56f
2:00am 4.5ft 6s 18 22 mph 1006.8mb 53f 56f
1:00am 4.5ft 6s 18 22 mph 1006.4mb 53f 56f
12:00am 6ft 6s 22 27 mph 1005.5mb 53f 56f
Fri 07/03 11:00pm 6ft 6s 25 29 mph 1004.8mb 53f 56f
10:00pm 6ft 6s 25 29 mph 1004.2mb 53f 56f
9:00pm 6.5ft 6s 22 27 mph 1004.2mb 53f 55f
8:00pm 6ft 6s 25 29 mph 1003.7mb 53f 55f
7:00pm 6ft 6s 22 27 mph 1003.5mb 53f 55f
6:00pm 6.5ft 6s 25 29 mph 1003.2mb 53f 55f
5:00pm 6.5ft 6s 22 27 mph 1002.9mb 53f 54f
4:00pm 5.5ft 6s 25 29 mph 1002.7mb 53f 55f
3:00pm 5ft 7s 22 27 mph 1003mb 54f 55f
2:00pm 5ft 7s 13 18 mph 1003.4mb 54f 55f
1:00pm 5ft 8s 9 11 mph 1003.6mb 54f 54f
12:00pm 5.5ft 7s 7 9 mph 1003.4mb 54f 54f
11:00am 5ft 7s 9 11 mph 1003.1mb 53f 54f
10:00am 4.5ft 7s 7 9 mph 1003.1mb 53f 54f
9:00am 4.5ft 7s 7 9 mph 1003.1mb 53f 56f
8:00am 4ft 7s 4 7 mph 1002.9mb 53f 56f
7:00am 4ft 7s 11 13 mph 1002.9mb 53f 57f
6:00am 4ft 6s 9 11 mph 1002.8mb 53f 58f
5:00am 3.5ft 7s 4 9 mph 1003mb 53f 57f
4:00am 3.5ft 6s 9 11 mph 1003.3mb 54f 56f
3:00am 3.5ft 6s 9
mph
1003.5mb 54f 56f
2:00am 3ft 6s 13
mph
1004mb 54f 55f
1:00am 3ft 6s 11
mph
1004.1mb 54f 55f
12:00am 3ft 6s 4 7 mph 1004.2mb 54f 55f
Thu 07/02 11:00pm 2.5ft 6s 4
mph
1003.8mb 54f 55f
10:00pm 2.5ft 5s 4 7 mph 1003.6mb 54f 55f
9:00pm 3ft 6s 4 7 mph 1003.1mb 54f 55f
8:00pm 3ft 6s  -  2 mph 1002.9mb 54f 56f
7:00pm 2.5ft 5s 4 9 mph 1002.4mb 54f 57f
6:00pm 2.5ft 6s 7
mph
1002.1mb 54f 58f
5:00pm 3.5ft 5s 9 11 mph 1001.4mb 54f 58f
4:00pm 3.5ft 6s 7 9 mph 1001.1mb 54f 57f
3:00pm 4ft 6s 9 13 mph 1000.4mb 54f 57f
2:00pm 3.5ft 5s 13 16 mph 1000.5mb 53f 57f
12:00pm 3ft 5s 13 16 mph 1000.8mb 53f 56f
11:00am 3.5ft 6s 16
mph
1001mb 53f 57f
10:00am 3.5ft 5s 18 20 mph 1001.3mb 53f 58f
9:00am 3.5ft 5s 18 20 mph 1001.3mb 54f 56f
8:00am 3.5ft 5s 16 18 mph 1001.9mb 54f 56f
7:00am 3.5ft 4s 20 22 mph 1002.7mb 54f 56f
5:00am 2.5ft 8s 16 18 mph 1005mb 54f 56f
4:00am 2ft 8s 16 18 mph 1006.3mb 54f 57f
3:00am 2ft 8s 13
mph
1006.8mb 55f 59f
2:00am 2ft 9s 13
mph
1007.6mb 55f 59f
1:00am 2.5ft 8s 16 18 mph 1007.6mb 55f 60f
12:00am 1.6ft 8s 16 18 mph 1007.4mb 54f 62f
Wed 07/01 11:00pm 1.6ft 7s 13
mph
1007.6mb 54f 65f
10:00pm 1.3ft 8s 7 11 mph 1008.1mb 55f 60f
9:00pm 1.3ft 8s 4 7 mph 1008.4mb 55f 58f
8:00pm 1.3ft 8s 9
mph
1009mb 55f 59f
7:00pm 1.3ft 8s 13 16 mph 1009.6mb 55f 59f
6:00pm 1.3ft 8s 11 13 mph 1010.2mb 55f 59f
5:00pm 1.3ft 8s 9
mph
1011.1mb 55f 58f
4:00pm 1.3ft 9s 7 9 mph 1011.5mb 55f 58f
3:00pm 1.3ft 8s 7
mph
1012mb 54f 57f
2:00pm 1.3ft 9s 4 7 mph 1012.5mb 54f 56f
1:00pm 1.3ft 9s 4 7 mph 1012.7mb 53f 55f
12:00pm 1.3ft 8s 7
mph
1013.2mb 53f 55f
11:00am 1.6ft 9s 2 4 mph 1012.7mb 52f 57f
10:00am 1.6ft 9s 2 4 mph 1012.5mb 52f 58f
9:00am 1.6ft 8s 2 4 mph 1012.2mb 52f 56f
8:00am 2ft 8s 4 7 mph 1011.8mb 52f 55f
7:00am 2ft 8s 9 11 mph 1011.6mb 52f 57f
5:00am 2.5ft 9s 7 9 mph 1011.9mb 52f 55f
4:00am 2.5ft 10s 9 11 mph 1011.7mb 52f 56f
3:00am 2.5ft 9s 13 16 mph 1011.5mb 52f 57f
2:00am 2.5ft 9s 16 18 mph 1011.3mb 52f 57f
1:00am 3ft 4s 16 18 mph 1010.8mb 51f 56f
12:00am 3ft 8s 18 20 mph 1010.6mb 51f 56f
Tue 06/30 11:00pm 3ft 8s 16 18 mph 1010.5mb 52f 55f
10:00pm 3ft 8s 13 18 mph 1010.5mb 52f 55f
9:00pm 3ft 8s 13 16 mph 1010.8mb 52f 55f
8:00pm 3ft 4s 13 18 mph 1011mb 52f 54f
7:00pm 3.5ft 8s 16 18 mph 1011.3mb 52f 54f
6:00pm 4ft 8s 18 20 mph 1011.4mb 52f 54f
5:00pm 4.5ft 8s 20 25 mph 1011.4mb 52f 54f
4:00pm 4.5ft 8s 20 22 mph 1011.5mb 52f 53f
3:00pm 4.5ft 9s 20 25 mph 1011.7mb 52f 52f
2:00pm 4.5ft 9s 20 25 mph 1011.5mb 52f 52f
1:00pm 4.5ft 10s 22 27 mph 1011.9mb 52f 52f
12:00pm 4.5ft 10s 20 25 mph 1011.8mb 52f 52f
11:00am 4.5ft 10s 16 20 mph 1011.5mb 52f 51f
10:00am 4.5ft 10s 13 18 mph 1011.2mb 52f 51f
9:00am 4.5ft 9s 9 11 mph 1010.9mb 51f 51f
8:00am 4.5ft 9s 11 13 mph 1010.3mb 52f 51f